sensor_id;sensor_type;location;lat;lon;timestamp;P1;durP1;ratioP1;P2;durP2;ratioP2
13218;SDS011;6674;49.152;11.918;2023-06-10T00:00:04;4.10;;;3.80;;
13218;SDS011;6674;49.152;11.918;2023-06-10T00:02:32;4.50;;;4.20;;
13218;SDS011;6674;49.152;11.918;2023-06-10T00:04:58;4.40;;;4.10;;
13218;SDS011;6674;49.152;11.918;2023-06-10T00:07:25;4.13;;;3.83;;
13218;SDS011;6674;49.152;11.918;2023-06-10T00:09:52;4.50;;;4.20;;
13218;SDS011;6674;49.152;11.918;2023-06-10T00:12:18;4.27;;;3.97;;
13218;SDS011;6674;49.152;11.918;2023-06-10T00:14:45;4.30;;;4.00;;
13218;SDS011;6674;49.152;11.918;2023-06-10T00:17:14;4.30;;;3.90;;
13218;SDS011;6674;49.152;11.918;2023-06-10T00:19:41;4.60;;;4.17;;
13218;SDS011;6674;49.152;11.918;2023-06-10T00:22:08;4.37;;;3.90;;
13218;SDS011;6674;49.152;11.918;2023-06-10T00:24:35;4.50;;;4.20;;
13218;SDS011;6674;49.152;11.918;2023-06-10T00:27:02;4.13;;;3.83;;
13218;SDS011;6674;49.152;11.918;2023-06-10T00:29:30;4.37;;;4.07;;
13218;SDS011;6674;49.152;11.918;2023-06-10T00:31:57;4.53;;;4.20;;
13218;SDS011;6674;49.152;11.918;2023-06-10T00:34:25;4.20;;;3.90;;
13218;SDS011;6674;49.152;11.918;2023-06-10T00:36:52;4.70;;;4.30;;
13218;SDS011;6674;49.152;11.918;2023-06-10T00:39:18;4.30;;;4.00;;
13218;SDS011;6674;49.152;11.918;2023-06-10T00:41:45;4.10;;;3.80;;
13218;SDS011;6674;49.152;11.918;2023-06-10T00:44:12;4.40;;;4.10;;
13218;SDS011;6674;49.152;11.918;2023-06-10T00:46:38;3.90;;;3.70;;
13218;SDS011;6674;49.152;11.918;2023-06-10T00:49:05;4.33;;;3.97;;
13218;SDS011;6674;49.152;11.918;2023-06-10T00:51:33;4.60;;;4.30;;
13218;SDS011;6674;49.152;11.918;2023-06-10T00:54:01;4.47;;;4.10;;
13218;SDS011;6674;49.152;11.918;2023-06-10T00:56:28;4.13;;;3.83;;
13218;SDS011;6674;49.152;11.918;2023-06-10T00:58:55;4.80;;;4.40;;
13218;SDS011;6674;49.152;11.918;2023-06-10T01:01:22;4.57;;;4.27;;
13218;SDS011;6674;49.152;11.918;2023-06-10T01:03:48;4.40;;;4.10;;
13218;SDS011;6674;49.152;11.918;2023-06-10T01:06:18;4.37;;;4.07;;
13218;SDS011;6674;49.152;11.918;2023-06-10T01:08:54;4.63;;;4.33;;
13218;SDS011;6674;49.152;11.918;2023-06-10T01:11:25;4.90;;;4.50;;
13218;SDS011;6674;49.152;11.918;2023-06-10T01:13:55;5.10;;;4.70;;
13218;SDS011;6674;49.152;11.918;2023-06-10T01:16:24;5.10;;;4.70;;
13218;SDS011;6674;49.152;11.918;2023-06-10T01:18:51;4.70;;;4.40;;
13218;SDS011;6674;49.152;11.918;2023-06-10T01:21:21;4.20;;;3.90;;
13218;SDS011;6674;49.152;11.918;2023-06-10T01:23:50;4.60;;;4.20;;
13218;SDS011;6674;49.152;11.918;2023-06-10T01:26:17;4.77;;;4.37;;
13218;SDS011;6674;49.152;11.918;2023-06-10T01:28:48;4.23;;;3.93;;
13218;SDS011;6674;49.152;11.918;2023-06-10T01:31:23;4.80;;;4.40;;
13218;SDS011;6674;49.152;11.918;2023-06-10T01:33:59;4.97;;;4.57;;
13218;SDS011;6674;49.152;11.918;2023-06-10T01:36:27;5.13;;;4.73;;
13218;SDS011;6674;49.152;11.918;2023-06-10T01:38:54;4.83;;;4.43;;
13218;SDS011;6674;49.152;11.918;2023-06-10T01:41:22;4.60;;;4.30;;
13218;SDS011;6674;49.152;11.918;2023-06-10T01:43:49;4.87;;;4.47;;
13218;SDS011;6674;49.152;11.918;2023-06-10T01:46:16;5.40;;;4.90;;
13218;SDS011;6674;49.152;11.918;2023-06-10T01:48:45;5.47;;;5.07;;
13218;SDS011;6674;49.152;11.918;2023-06-10T01:51:12;5.10;;;4.70;;
13218;SDS011;6674;49.152;11.918;2023-06-10T01:53:39;5.87;;;5.40;;
13218;SDS011;6674;49.152;11.918;2023-06-10T01:56:06;5.27;;;4.87;;
13218;SDS011;6674;49.152;11.918;2023-06-10T01:58:33;5.73;;;5.33;;
13218;SDS011;6674;49.152;11.918;2023-06-10T02:00:59;5.50;;;5.10;;
13218;SDS011;6674;49.152;11.918;2023-06-10T02:03:26;5.90;;;5.40;;
13218;SDS011;6674;49.152;11.918;2023-06-10T02:05:52;6.37;;;5.77;;
13218;SDS011;6674;49.152;11.918;2023-06-10T02:08:19;6.57;;;6.07;;
13218;SDS011;6674;49.152;11.918;2023-06-10T02:10:47;5.93;;;5.43;;
13218;SDS011;6674;49.152;11.918;2023-06-10T02:13:13;6.00;;;5.50;;
13218;SDS011;6674;49.152;11.918;2023-06-10T02:15:40;5.70;;;5.30;;
13218;SDS011;6674;49.152;11.918;2023-06-10T02:18:06;5.97;;;5.47;;
13218;SDS011;6674;49.152;11.918;2023-06-10T02:20:33;5.70;;;5.30;;
13218;SDS011;6674;49.152;11.918;2023-06-10T02:23:00;6.00;;;5.50;;
13218;SDS011;6674;49.152;11.918;2023-06-10T02:25:26;6.00;;;5.50;;
13218;SDS011;6674;49.152;11.918;2023-06-10T02:27:54;5.63;;;5.23;;
13218;SDS011;6674;49.152;11.918;2023-06-10T02:30:21;5.97;;;5.47;;
13218;SDS011;6674;49.152;11.918;2023-06-10T02:32:47;6.70;;;6.10;;
13218;SDS011;6674;49.152;11.918;2023-06-10T02:35:15;6.17;;;5.70;;
13218;SDS011;6674;49.152;11.918;2023-06-10T02:37:42;5.90;;;5.40;;
13218;SDS011;6674;49.152;11.918;2023-06-10T02:40:09;5.57;;;5.13;;
13218;SDS011;6674;49.152;11.918;2023-06-10T02:42:36;5.70;;;5.20;;
13218;SDS011;6674;49.152;11.918;2023-06-10T02:45:05;5.87;;;5.47;;
13218;SDS011;6674;49.152;11.918;2023-06-10T02:47:32;5.87;;;5.47;;
13218;SDS011;6674;49.152;11.918;2023-06-10T02:49:59;5.97;;;5.57;;
13218;SDS011;6674;49.152;11.918;2023-06-10T02:52:25;6.30;;;5.80;;
13218;SDS011;6674;49.152;11.918;2023-06-10T02:54:52;6.70;;;6.20;;
13218;SDS011;6674;49.152;11.918;2023-06-10T02:57:18;6.70;;;6.20;;
13218;SDS011;6674;49.152;11.918;2023-06-10T02:59:45;6.53;;;6.00;;
13218;SDS011;6674;49.152;11.918;2023-06-10T03:02:13;5.93;;;5.50;;
13218;SDS011;6674;49.152;11.918;2023-06-10T03:04:40;6.47;;;5.97;;
13218;SDS011;6674;49.152;11.918;2023-06-10T03:07:08;6.57;;;6.07;;
13218;SDS011;6674;49.152;11.918;2023-06-10T03:09:36;5.97;;;5.57;;
13218;SDS011;6674;49.152;11.918;2023-06-10T03:12:03;6.90;;;6.30;;
13218;SDS011;6674;49.152;11.918;2023-06-10T03:14:30;6.60;;;6.10;;
13218;SDS011;6674;49.152;11.918;2023-06-10T03:16:56;6.67;;;6.17;;
13218;SDS011;6674;49.152;11.918;2023-06-10T03:19:24;6.57;;;5.97;;
13218;SDS011;6674;49.152;11.918;2023-06-10T03:21:57;6.23;;;5.73;;
13218;SDS011;6674;49.152;11.918;2023-06-10T03:24:32;6.37;;;5.87;;
13218;SDS011;6674;49.152;11.918;2023-06-10T03:26:59;6.70;;;6.20;;
13218;SDS011;6674;49.152;11.918;2023-06-10T03:29:26;6.40;;;5.80;;
13218;SDS011;6674;49.152;11.918;2023-06-10T03:31:52;5.97;;;5.47;;
13218;SDS011;6674;49.152;11.918;2023-06-10T03:34:19;6.17;;;5.67;;
13218;SDS011;6674;49.152;11.918;2023-06-10T03:36:47;5.97;;;5.57;;
13218;SDS011;6674;49.152;11.918;2023-06-10T03:39:14;6.20;;;5.70;;
13218;SDS011;6674;49.152;11.918;2023-06-10T03:41:40;6.67;;;6.17;;
13218;SDS011;6674;49.152;11.918;2023-06-10T03:44:07;6.57;;;6.07;;
13218;SDS011;6674;49.152;11.918;2023-06-10T03:46:34;6.27;;;5.80;;
13218;SDS011;6674;49.152;11.918;2023-06-10T03:49:00;6.73;;;6.23;;
13218;SDS011;6674;49.152;11.918;2023-06-10T03:51:27;6.20;;;5.70;;
13218;SDS011;6674;49.152;11.918;2023-06-10T03:53:55;5.73;;;5.33;;
13218;SDS011;6674;49.152;11.918;2023-06-10T03:56:21;6.70;;;6.17;;
13218;SDS011;6674;49.152;11.918;2023-06-10T03:58:48;6.50;;;5.90;;
13218;SDS011;6674;49.152;11.918;2023-06-10T04:01:15;5.90;;;5.50;;
13218;SDS011;6674;49.152;11.918;2023-06-10T04:03:43;6.10;;;5.60;;
13218;SDS011;6674;49.152;11.918;2023-06-10T04:06:09;6.83;;;6.33;;
13218;SDS011;6674;49.152;11.918;2023-06-10T04:08:36;6.03;;;5.53;;
13218;SDS011;6674;49.152;11.918;2023-06-10T04:11:04;5.80;;;5.30;;
13218;SDS011;6674;49.152;11.918;2023-06-10T04:13:30;6.40;;;5.90;;
13218;SDS011;6674;49.152;11.918;2023-06-10T04:15:57;6.30;;;5.80;;
13218;SDS011;6674;49.152;11.918;2023-06-10T04:18:24;5.40;;;5.00;;
13218;SDS011;6674;49.152;11.918;2023-06-10T04:20:51;6.00;;;5.50;;
13218;SDS011;6674;49.152;11.918;2023-06-10T04:23:17;6.13;;;5.63;;
13218;SDS011;6674;49.152;11.918;2023-06-10T04:25:44;6.17;;;5.77;;
13218;SDS011;6674;49.152;11.918;2023-06-10T04:28:12;6.23;;;5.83;;
13218;SDS011;6674;49.152;11.918;2023-06-10T04:30:39;6.27;;;5.77;;
13218;SDS011;6674;49.152;11.918;2023-06-10T04:33:07;5.73;;;5.33;;
13218;SDS011;6674;49.152;11.918;2023-06-10T04:35:34;6.03;;;5.63;;
13218;SDS011;6674;49.152;11.918;2023-06-10T04:38:00;6.27;;;5.77;;
13218;SDS011;6674;49.152;11.918;2023-06-10T04:40:28;6.23;;;5.73;;
13218;SDS011;6674;49.152;11.918;2023-06-10T04:42:55;5.90;;;5.43;;
13218;SDS011;6674;49.152;11.918;2023-06-10T04:45:22;6.93;;;6.33;;
13218;SDS011;6674;49.152;11.918;2023-06-10T04:47:49;7.27;;;6.67;;
13218;SDS011;6674;49.152;11.918;2023-06-10T04:50:16;6.60;;;6.00;;
13218;SDS011;6674;49.152;11.918;2023-06-10T04:52:43;6.17;;;5.67;;
13218;SDS011;6674;49.152;11.918;2023-06-10T04:55:10;6.37;;;5.87;;
13218;SDS011;6674;49.152;11.918;2023-06-10T04:57:37;6.37;;;5.87;;
13218;SDS011;6674;49.152;11.918;2023-06-10T05:00:04;6.37;;;5.87;;
13218;SDS011;6674;49.152;11.918;2023-06-10T05:02:33;6.60;;;6.10;;
13218;SDS011;6674;49.152;11.918;2023-06-10T05:05:00;6.43;;;5.93;;
13218;SDS011;6674;49.152;11.918;2023-06-10T05:07:26;6.27;;;5.73;;
13218;SDS011;6674;49.152;11.918;2023-06-10T05:09:53;6.83;;;6.33;;
13218;SDS011;6674;49.152;11.918;2023-06-10T05:12:19;6.03;;;5.53;;
13218;SDS011;6674;49.152;11.918;2023-06-10T05:14:46;5.90;;;5.50;;
13218;SDS011;6674;49.152;11.918;2023-06-10T05:17:13;5.93;;;5.53;;
13218;SDS011;6674;49.152;11.918;2023-06-10T05:19:41;6.37;;;5.80;;
13218;SDS011;6674;49.152;11.918;2023-06-10T05:22:08;6.27;;;5.77;;
13218;SDS011;6674;49.152;11.918;2023-06-10T05:24:35;6.17;;;5.67;;
13218;SDS011;6674;49.152;11.918;2023-06-10T05:27:01;5.90;;;5.50;;
13218;SDS011;6674;49.152;11.918;2023-06-10T05:29:28;5.80;;;5.40;;
13218;SDS011;6674;49.152;11.918;2023-06-10T05:31:55;5.70;;;5.30;;
13218;SDS011;6674;49.152;11.918;2023-06-10T05:34:22;5.73;;;5.33;;
13218;SDS011;6674;49.152;11.918;2023-06-10T05:36:50;6.70;;;6.20;;
13218;SDS011;6674;49.152;11.918;2023-06-10T05:39:17;6.43;;;5.93;;
13218;SDS011;6674;49.152;11.918;2023-06-10T05:41:43;6.00;;;5.50;;
13218;SDS011;6674;49.152;11.918;2023-06-10T05:44:10;6.00;;;5.50;;
13218;SDS011;6674;49.152;11.918;2023-06-10T05:46:37;6.43;;;5.93;;
13218;SDS011;6674;49.152;11.918;2023-06-10T05:49:03;7.40;;;6.80;;
13218;SDS011;6674;49.152;11.918;2023-06-10T05:51:30;6.33;;;5.73;;
13218;SDS011;6674;49.152;11.918;2023-06-10T05:53:58;7.53;;;6.93;;
13218;SDS011;6674;49.152;11.918;2023-06-10T05:56:24;6.43;;;5.93;;
13218;SDS011;6674;49.152;11.918;2023-06-10T05:58:51;7.13;;;6.60;;
13218;SDS011;6674;49.152;11.918;2023-06-10T06:01:18;7.50;;;6.90;;
13218;SDS011;6674;49.152;11.918;2023-06-10T06:03:44;6.80;;;6.30;;
13218;SDS011;6674;49.152;11.918;2023-06-10T06:06:12;6.53;;;6.03;;
13218;SDS011;6674;49.152;11.918;2023-06-10T06:08:39;6.77;;;6.27;;
13218;SDS011;6674;49.152;11.918;2023-06-10T06:11:07;7.10;;;6.50;;
13218;SDS011;6674;49.152;11.918;2023-06-10T06:13:33;6.83;;;6.33;;
13218;SDS011;6674;49.152;11.918;2023-06-10T06:16:00;6.13;;;5.70;;
13218;SDS011;6674;49.152;11.918;2023-06-10T06:18:26;6.07;;;5.67;;
13218;SDS011;6674;49.152;11.918;2023-06-10T06:20:53;6.27;;;5.77;;
13218;SDS011;6674;49.152;11.918;2023-06-10T06:23:20;6.70;;;6.20;;
13218;SDS011;6674;49.152;11.918;2023-06-10T06:25:46;5.97;;;5.47;;
13218;SDS011;6674;49.152;11.918;2023-06-10T06:28:14;6.20;;;5.70;;
13218;SDS011;6674;49.152;11.918;2023-06-10T06:30:41;6.30;;;5.80;;
13218;SDS011;6674;49.152;11.918;2023-06-10T06:33:07;6.30;;;5.80;;
13218;SDS011;6674;49.152;11.918;2023-06-10T06:35:34;6.70;;;6.10;;
13218;SDS011;6674;49.152;11.918;2023-06-10T06:38:00;5.30;;;4.90;;
13218;SDS011;6674;49.152;11.918;2023-06-10T06:40:29;5.60;;;5.20;;
13218;SDS011;6674;49.152;11.918;2023-06-10T06:42:56;5.63;;;5.23;;
13218;SDS011;6674;49.152;11.918;2023-06-10T06:45:24;6.10;;;5.60;;
13218;SDS011;6674;49.152;11.918;2023-06-10T06:47:50;5.60;;;5.20;;
13218;SDS011;6674;49.152;11.918;2023-06-10T06:50:17;5.40;;;5.00;;
13218;SDS011;6674;49.152;11.918;2023-06-10T06:52:44;6.13;;;5.73;;
13218;SDS011;6674;49.152;11.918;2023-06-10T06:55:11;5.57;;;5.17;;
13218;SDS011;6674;49.152;11.918;2023-06-10T06:57:37;5.63;;;5.23;;
13218;SDS011;6674;49.152;11.918;2023-06-10T07:00:04;6.03;;;5.53;;
13218;SDS011;6674;49.152;11.918;2023-06-10T07:02:34;5.70;;;5.20;;
13218;SDS011;6674;49.152;11.918;2023-06-10T07:05:01;5.03;;;4.60;;
13218;SDS011;6674;49.152;11.918;2023-06-10T07:07:28;5.00;;;4.60;;
13218;SDS011;6674;49.152;11.918;2023-06-10T07:09:55;5.67;;;5.27;;
13218;SDS011;6674;49.152;11.918;2023-06-10T07:12:21;5.00;;;4.70;;
13218;SDS011;6674;49.152;11.918;2023-06-10T07:14:49;5.90;;;5.50;;
13218;SDS011;6674;49.152;11.918;2023-06-10T07:17:16;6.20;;;5.80;;
13218;SDS011;6674;49.152;11.918;2023-06-10T07:19:44;5.93;;;5.53;;
13218;SDS011;6674;49.152;11.918;2023-06-10T07:22:11;6.43;;;5.93;;
13218;SDS011;6674;49.152;11.918;2023-06-10T07:24:38;7.03;;;6.53;;
13218;SDS011;6674;49.152;11.918;2023-06-10T07:27:05;7.87;;;7.27;;
13218;SDS011;6674;49.152;11.918;2023-06-10T07:29:32;7.43;;;6.83;;
13218;SDS011;6674;49.152;11.918;2023-06-10T07:32:01;8.83;;;8.13;;
13218;SDS011;6674;49.152;11.918;2023-06-10T07:34:27;7.40;;;6.80;;
13218;SDS011;6674;49.152;11.918;2023-06-10T07:36:56;8.47;;;7.77;;
13218;SDS011;6674;49.152;11.918;2023-06-10T07:39:22;7.40;;;6.90;;
13218;SDS011;6674;49.152;11.918;2023-06-10T07:41:49;7.90;;;7.30;;
13218;SDS011;6674;49.152;11.918;2023-06-10T07:44:18;7.70;;;7.10;;
13218;SDS011;6674;49.152;11.918;2023-06-10T07:46:45;7.13;;;6.57;;
13218;SDS011;6674;49.152;11.918;2023-06-10T07:49:12;7.13;;;6.63;;
13218;SDS011;6674;49.152;11.918;2023-06-10T07:51:38;7.27;;;6.77;;
13218;SDS011;6674;49.152;11.918;2023-06-10T07:54:06;7.40;;;6.80;;
13218;SDS011;6674;49.152;11.918;2023-06-10T07:56:33;7.33;;;6.73;;
13218;SDS011;6674;49.152;11.918;2023-06-10T07:58:59;7.20;;;6.70;;
13218;SDS011;6674;49.152;11.918;2023-06-10T08:01:26;8.23;;;7.63;;
13218;SDS011;6674;49.152;11.918;2023-06-10T08:03:53;7.17;;;6.57;;
13218;SDS011;6674;49.152;11.918;2023-06-10T08:06:19;6.80;;;6.30;;
13218;SDS011;6674;49.152;11.918;2023-06-10T08:08:46;6.13;;;5.73;;
13218;SDS011;6674;49.152;11.918;2023-06-10T08:11:14;6.73;;;6.23;;
13218;SDS011;6674;49.152;11.918;2023-06-10T08:13:40;6.50;;;6.00;;
13218;SDS011;6674;49.152;11.918;2023-06-10T08:16:07;6.30;;;5.90;;
13218;SDS011;6674;49.152;11.918;2023-06-10T08:18:33;6.33;;;5.83;;
13218;SDS011;6674;49.152;11.918;2023-06-10T08:21:00;5.77;;;5.37;;
13218;SDS011;6674;49.152;11.918;2023-06-10T08:23:27;5.90;;;5.50;;
13218;SDS011;6674;49.152;11.918;2023-06-10T08:25:53;6.37;;;5.87;;
13218;SDS011;6674;49.152;11.918;2023-06-10T08:28:21;5.83;;;5.43;;
13218;SDS011;6674;49.152;11.918;2023-06-10T08:30:48;5.57;;;5.17;;
13218;SDS011;6674;49.152;11.918;2023-06-10T08:33:15;6.07;;;5.67;;
13218;SDS011;6674;49.152;11.918;2023-06-10T08:35:41;5.50;;;5.07;;
13218;SDS011;6674;49.152;11.918;2023-06-10T08:38:08;5.13;;;4.73;;
13218;SDS011;6674;49.152;11.918;2023-06-10T08:40:34;5.87;;;5.43;;
13218;SDS011;6674;49.152;11.918;2023-06-10T08:43:03;5.60;;;5.20;;
13218;SDS011;6674;49.152;11.918;2023-06-10T08:45:34;5.43;;;5.03;;
13218;SDS011;6674;49.152;11.918;2023-06-10T08:48:02;5.20;;;4.83;;
13218;SDS011;6674;49.152;11.918;2023-06-10T08:50:31;5.70;;;5.30;;
13218;SDS011;6674;49.152;11.918;2023-06-10T08:53:01;5.37;;;4.97;;
13218;SDS011;6674;49.152;11.918;2023-06-10T08:55:31;5.23;;;4.83;;
13218;SDS011;6674;49.152;11.918;2023-06-10T08:57:59;4.77;;;4.47;;
13218;SDS011;6674;49.152;11.918;2023-06-10T09:00:26;5.13;;;4.77;;
13218;SDS011;6674;49.152;11.918;2023-06-10T09:02:56;5.20;;;4.80;;
13218;SDS011;6674;49.152;11.918;2023-06-10T09:05:24;5.00;;;4.70;;
13218;SDS011;6674;49.152;11.918;2023-06-10T09:07:51;5.20;;;4.90;;
13218;SDS011;6674;49.152;11.918;2023-06-10T09:10:19;4.60;;;4.30;;
13218;SDS011;6674;49.152;11.918;2023-06-10T09:12:47;5.40;;;5.10;;
13218;SDS011;6674;49.152;11.918;2023-06-10T09:15:13;5.10;;;4.80;;
13218;SDS011;6674;49.152;11.918;2023-06-10T09:17:42;4.97;;;4.67;;
13218;SDS011;6674;49.152;11.918;2023-06-10T09:20:11;4.70;;;4.40;;
13218;SDS011;6674;49.152;11.918;2023-06-10T09:22:37;4.43;;;4.13;;
13218;SDS011;6674;49.152;11.918;2023-06-10T09:25:05;4.80;;;4.50;;
13218;SDS011;6674;49.152;11.918;2023-06-10T09:27:34;5.03;;;4.73;;
13218;SDS011;6674;49.152;11.918;2023-06-10T09:30:10;4.80;;;4.47;;
13218;SDS011;6674;49.152;11.918;2023-06-10T09:32:52;5.00;;;4.60;;
13218;SDS011;6674;49.152;11.918;2023-06-10T09:35:22;4.40;;;4.10;;
13218;SDS011;6674;49.152;11.918;2023-06-10T09:37:50;5.27;;;4.87;;
13218;SDS011;6674;49.152;11.918;2023-06-10T09:40:18;12.43;;;5.83;;
13218;SDS011;6674;49.152;11.918;2023-06-10T09:42:44;4.47;;;4.17;;
13218;SDS011;6674;49.152;11.918;2023-06-10T09:45:14;4.70;;;4.40;;
13218;SDS011;6674;49.152;11.918;2023-06-10T09:47:40;4.53;;;4.23;;
13218;SDS011;6674;49.152;11.918;2023-06-10T09:50:07;4.50;;;4.20;;
13218;SDS011;6674;49.152;11.918;2023-06-10T09:52:36;4.43;;;4.13;;
13218;SDS011;6674;49.152;11.918;2023-06-10T09:55:03;4.23;;;4.00;;
13218;SDS011;6674;49.152;11.918;2023-06-10T09:57:33;4.90;;;4.60;;
13218;SDS011;6674;49.152;11.918;2023-06-10T10:00:03;4.20;;;3.93;;
13218;SDS011;6674;49.152;11.918;2023-06-10T10:02:31;4.50;;;4.20;;
13218;SDS011;6674;49.152;11.918;2023-06-10T10:05:01;4.37;;;4.07;;
13218;SDS011;6674;49.152;11.918;2023-06-10T10:07:28;4.40;;;4.10;;
13218;SDS011;6674;49.152;11.918;2023-06-10T10:09:56;4.33;;;4.03;;
13218;SDS011;6674;49.152;11.918;2023-06-10T10:12:23;4.93;;;4.53;;
13218;SDS011;6674;49.152;11.918;2023-06-10T10:14:50;4.50;;;4.20;;
13218;SDS011;6674;49.152;11.918;2023-06-10T10:17:20;4.90;;;4.60;;
13218;SDS011;6674;49.152;11.918;2023-06-10T10:19:50;5.00;;;4.60;;
13218;SDS011;6674;49.152;11.918;2023-06-10T10:22:25;4.93;;;4.53;;
13218;SDS011;6674;49.152;11.918;2023-06-10T10:24:53;4.53;;;4.23;;
13218;SDS011;6674;49.152;11.918;2023-06-10T10:27:26;5.30;;;4.90;;
13218;SDS011;6674;49.152;11.918;2023-06-10T10:29:54;4.47;;;4.17;;
13218;SDS011;6674;49.152;11.918;2023-06-10T10:32:26;4.57;;;4.27;;
13218;SDS011;6674;49.152;11.918;2023-06-10T10:34:59;4.50;;;4.20;;
13218;SDS011;6674;49.152;11.918;2023-06-10T10:37:33;4.40;;;4.10;;
13218;SDS011;6674;49.152;11.918;2023-06-10T10:40:03;4.90;;;4.60;;
13218;SDS011;6674;49.152;11.918;2023-06-10T10:42:31;5.60;;;5.20;;
13218;SDS011;6674;49.152;11.918;2023-06-10T10:44:58;5.43;;;5.03;;
13218;SDS011;6674;49.152;11.918;2023-06-10T10:47:26;5.00;;;4.70;;
13218;SDS011;6674;49.152;11.918;2023-06-10T10:49:54;4.60;;;4.30;;
13218;SDS011;6674;49.152;11.918;2023-06-10T10:52:24;4.15;;;3.85;;
13218;SDS011;6674;49.152;11.918;2023-06-10T10:54:52;4.90;;;4.60;;
13218;SDS011;6674;49.152;11.918;2023-06-10T10:57:21;4.63;;;4.33;;
13218;SDS011;6674;49.152;11.918;2023-06-10T10:59:55;3.90;;;3.60;;
13218;SDS011;6674;49.152;11.918;2023-06-10T11:02:34;5.00;;;4.70;;
13218;SDS011;6674;49.152;11.918;2023-06-10T11:05:04;4.50;;;4.20;;
13218;SDS011;6674;49.152;11.918;2023-06-10T11:07:32;4.33;;;4.03;;
13218;SDS011;6674;49.152;11.918;2023-06-10T11:10:00;5.07;;;4.67;;
13218;SDS011;6674;49.152;11.918;2023-06-10T11:15:24;4.80;;;4.50;;
13218;SDS011;6674;49.152;11.918;2023-06-10T11:18:11;5.13;;;4.72;;
13218;SDS011;6674;49.152;11.918;2023-06-10T11:20:59;5.07;;;4.68;;
13218;SDS011;6674;49.152;11.918;2023-06-10T11:23:32;4.80;;;4.50;;
13218;SDS011;6674;49.152;11.918;2023-06-10T11:26:09;5.33;;;5.03;;
13218;SDS011;6674;49.152;11.918;2023-06-10T11:28:38;5.03;;;4.73;;
13218;SDS011;6674;49.152;11.918;2023-06-10T11:31:05;6.13;;;5.67;;
13218;SDS011;6674;49.152;11.918;2023-06-10T11:33:32;5.60;;;5.20;;
13218;SDS011;6674;49.152;11.918;2023-06-10T11:35:58;6.23;;;5.83;;
13218;SDS011;6674;49.152;11.918;2023-06-10T11:38:25;6.00;;;5.60;;
13218;SDS011;6674;49.152;11.918;2023-06-10T11:40:52;6.30;;;5.80;;
13218;SDS011;6674;49.152;11.918;2023-06-10T11:43:20;5.90;;;5.50;;
13218;SDS011;6674;49.152;11.918;2023-06-10T11:45:53;6.33;;;5.93;;
13218;SDS011;6674;49.152;11.918;2023-06-10T11:48:20;6.13;;;5.73;;
13218;SDS011;6674;49.152;11.918;2023-06-10T11:50:47;5.83;;;5.37;;
13218;SDS011;6674;49.152;11.918;2023-06-10T11:53:13;6.80;;;6.30;;
13218;SDS011;6674;49.152;11.918;2023-06-10T11:55:41;6.40;;;5.80;;
13218;SDS011;6674;49.152;11.918;2023-06-10T11:58:12;6.80;;;6.40;;
13218;SDS011;6674;49.152;11.918;2023-06-10T12:00:43;6.60;;;6.17;;
13218;SDS011;6674;49.152;11.918;2023-06-10T12:03:12;7.00;;;6.50;;
13218;SDS011;6674;49.152;11.918;2023-06-10T12:05:39;6.40;;;6.00;;
13218;SDS011;6674;49.152;11.918;2023-06-10T12:08:08;6.70;;;6.20;;
13218;SDS011;6674;49.152;11.918;2023-06-10T12:10:39;6.50;;;6.00;;
13218;SDS011;6674;49.152;11.918;2023-06-10T12:13:07;6.53;;;6.03;;
13218;SDS011;6674;49.152;11.918;2023-06-10T12:15:34;6.03;;;5.63;;
13218;SDS011;6674;49.152;11.918;2023-06-10T12:18:01;6.40;;;5.90;;
13218;SDS011;6674;49.152;11.918;2023-06-10T12:20:30;5.93;;;5.47;;
13218;SDS011;6674;49.152;11.918;2023-06-10T12:22:58;5.90;;;5.50;;
13218;SDS011;6674;49.152;11.918;2023-06-10T12:25:26;5.00;;;4.60;;
13218;SDS011;6674;49.152;11.918;2023-06-10T12:27:53;4.93;;;4.63;;
13218;SDS011;6674;49.152;11.918;2023-06-10T12:30:23;6.60;;;5.93;;
13218;SDS011;6674;49.152;11.918;2023-06-10T12:32:51;5.10;;;4.80;;
13218;SDS011;6674;49.152;11.918;2023-06-10T12:35:19;5.13;;;4.83;;
13218;SDS011;6674;49.152;11.918;2023-06-10T12:37:57;4.93;;;4.63;;
13218;SDS011;6674;49.152;11.918;2023-06-10T12:40:26;4.70;;;4.40;;
13218;SDS011;6674;49.152;11.918;2023-06-10T12:42:54;5.00;;;4.70;;
13218;SDS011;6674;49.152;11.918;2023-06-10T12:45:26;6.00;;;5.60;;
13218;SDS011;6674;49.152;11.918;2023-06-10T12:48:03;4.97;;;4.67;;
13218;SDS011;6674;49.152;11.918;2023-06-10T12:50:32;5.70;;;5.30;;
13218;SDS011;6674;49.152;11.918;2023-06-10T12:53:00;7.03;;;6.43;;
13218;SDS011;6674;49.152;11.918;2023-06-10T12:55:26;6.57;;;6.17;;
13218;SDS011;6674;49.152;11.918;2023-06-10T12:57:53;6.60;;;6.20;;
13218;SDS011;6674;49.152;11.918;2023-06-10T13:00:21;7.27;;;6.77;;
13218;SDS011;6674;49.152;11.918;2023-06-10T13:02:51;6.80;;;6.40;;
13218;SDS011;6674;49.152;11.918;2023-06-10T13:05:18;6.43;;;5.93;;
13218;SDS011;6674;49.152;11.918;2023-06-10T13:07:46;6.23;;;5.83;;
13218;SDS011;6674;49.152;11.918;2023-06-10T13:10:14;6.70;;;6.20;;
13218;SDS011;6674;49.152;11.918;2023-06-10T13:12:42;5.60;;;5.20;;
13218;SDS011;6674;49.152;11.918;2023-06-10T13:15:09;5.83;;;5.43;;
13218;SDS011;6674;49.152;11.918;2023-06-10T13:17:36;5.83;;;5.43;;
13218;SDS011;6674;49.152;11.918;2023-06-10T13:20:02;6.43;;;6.03;;
13218;SDS011;6674;49.152;11.918;2023-06-10T13:22:30;6.53;;;6.03;;
13218;SDS011;6674;49.152;11.918;2023-06-10T13:24:58;6.80;;;6.30;;
13218;SDS011;6674;49.152;11.918;2023-06-10T13:27:26;6.10;;;5.70;;
13218;SDS011;6674;49.152;11.918;2023-06-10T13:29:53;5.80;;;5.40;;
13218;SDS011;6674;49.152;11.918;2023-06-10T13:32:19;5.97;;;5.57;;
13218;SDS011;6674;49.152;11.918;2023-06-10T13:34:46;4.83;;;4.53;;
13218;SDS011;6674;49.152;11.918;2023-06-10T13:37:12;5.40;;;5.00;;
13218;SDS011;6674;49.152;11.918;2023-06-10T13:39:39;5.37;;;4.97;;
13218;SDS011;6674;49.152;11.918;2023-06-10T13:42:06;5.07;;;4.77;;
13218;SDS011;6674;49.152;11.918;2023-06-10T13:44:35;5.30;;;4.90;;
13218;SDS011;6674;49.152;11.918;2023-06-10T13:47:02;5.73;;;5.33;;
13218;SDS011;6674;49.152;11.918;2023-06-10T13:49:29;5.30;;;5.00;;
13218;SDS011;6674;49.152;11.918;2023-06-10T13:51:56;5.73;;;5.30;;
13218;SDS011;6674;49.152;11.918;2023-06-10T13:54:23;4.80;;;4.50;;
13218;SDS011;6674;49.152;11.918;2023-06-10T13:56:49;4.73;;;4.43;;
13218;SDS011;6674;49.152;11.918;2023-06-10T13:59:16;4.67;;;4.33;;
13218;SDS011;6674;49.152;11.918;2023-06-10T14:01:46;4.70;;;4.30;;
13218;SDS011;6674;49.152;11.918;2023-06-10T14:04:12;5.03;;;4.65;;
13218;SDS011;6674;49.152;11.918;2023-06-10T14:06:39;4.43;;;4.13;;
13218;SDS011;6674;49.152;11.918;2023-06-10T14:09:06;3.63;;;3.43;;
13218;SDS011;6674;49.152;11.918;2023-06-10T14:11:32;3.50;;;3.30;;
13218;SDS011;6674;49.152;11.918;2023-06-10T14:13:59;3.40;;;3.20;;
13218;SDS011;6674;49.152;11.918;2023-06-10T14:16:26;3.10;;;2.90;;
13218;SDS011;6674;49.152;11.918;2023-06-10T14:18:54;3.10;;;2.90;;
13218;SDS011;6674;49.152;11.918;2023-06-10T14:21:21;2.80;;;2.70;;
13218;SDS011;6674;49.152;11.918;2023-06-10T14:23:48;2.67;;;2.58;;
13218;SDS011;6674;49.152;11.918;2023-06-10T14:26:16;2.63;;;2.53;;
13218;SDS011;6674;49.152;11.918;2023-06-10T14:28:43;2.67;;;2.57;;
13218;SDS011;6674;49.152;11.918;2023-06-10T14:31:10;2.80;;;2.65;;
13218;SDS011;6674;49.152;11.918;2023-06-10T14:33:36;2.75;;;2.55;;
13218;SDS011;6674;49.152;11.918;2023-06-10T14:36:06;2.40;;;2.30;;
13218;SDS011;6674;49.152;11.918;2023-06-10T14:38:32;2.67;;;2.40;;
13218;SDS011;6674;49.152;11.918;2023-06-10T14:40:59;2.67;;;2.57;;
13218;SDS011;6674;49.152;11.918;2023-06-10T14:43:27;2.95;;;2.75;;
13218;SDS011;6674;49.152;11.918;2023-06-10T14:45:53;2.72;;;2.58;;
13218;SDS011;6674;49.152;11.918;2023-06-10T14:48:21;2.35;;;2.25;;
13218;SDS011;6674;49.152;11.918;2023-06-10T14:50:48;3.00;;;2.80;;
13218;SDS011;6674;49.152;11.918;2023-06-10T14:53:17;2.40;;;2.30;;